Time;durP1;ratioP1;P1;durP2;ratioP2;P2;SDS_P1;SDS_P2;PMS_P1;PMS_P2;Temp;Humidity;BMP_temperature;BMP_pressure;BME280_temperature;BME280_humidity;BME280_pressure;Samples;Min_cycle;Max_cycle;Signal;HPM_P1;HPM_P2
2022/12/30 00:00:00;;;;;;;69.60;43.10;;;;;;;11.43;67.83;95405.84;5132843;27;20583;-48
2022/12/30 00:02:27;;;;;;;65.33;39.83;;;;;;;11.44;68.10;95414.34;5132870;27;20215;-47
2022/12/30 00:04:54;;;;;;;58.93;39.83;;;;;;;11.43;68.04;95407.59;5132902;27;20184;-47
2022/12/30 00:07:21;;;;;;;67.27;42.80;;;;;;;11.43;68.17;95412.72;5132909;27;20188;-46
2022/12/30 00:09:48;;;;;;;66.80;41.90;;;;;;;11.42;68.11;95409.34;5132286;27;20195;-47
2022/12/30 00:34:36;;;;;;;70.10;44.70;;;;;;;11.31;68.23;95422.19;4982836;28;20259;-46
2022/12/30 00:37:04;;;;;;;72.17;44.03;;;;;;;11.31;68.42;95432.44;4989187;28;20260;-46
2022/12/30 00:39:31;;;;;;;68.73;45.20;;;;;;;11.30;68.37;95435.94;4989364;28;20239;-47
2022/12/30 00:44:41;;;;;;;75.27;45.57;;;;;;;11.31;68.46;95427.31;4988491;28;20267;-47
2022/12/30 00:47:11;;;;;;;71.70;44.50;;;;;;;11.30;68.55;95425.69;4989193;28;20197;-47
2022/12/30 00:57:52;;;;;;;78.37;47.47;;;;;;;11.26;68.75;95424.31;4989179;28;20227;-46
2022/12/30 01:00:18;;;;;;;74.03;46.63;;;;;;;11.27;68.57;95428.53;4988970;28;20744;-49
2022/12/30 01:02:47;;;;;;;72.97;47.67;;;;;;;11.07;68.52;95385.78;4988644;28;20205;-47
2022/12/30 01:05:13;;;;;;;76.97;49.03;;;;;;;11.25;68.51;95423.50;5032244;28;20214;-47
2022/12/30 01:07:40;;;;;;;78.07;47.60;;;;;;;11.25;68.78;95425.25;5048197;28;20191;-47
2022/12/30 01:10:08;;;;;;;73.53;48.53;;;;;;;11.25;68.55;95425.25;5074220;28;20216;-47
2022/12/30 01:12:34;;;;;;;72.93;46.97;;;;;;;11.25;68.91;95423.50;5114770;27;20244;-47
2022/12/30 01:15:01;;;;;;;71.93;45.53;;;;;;;11.25;68.60;95431.19;5130755;27;20196;-47
2022/12/30 01:17:29;;;;;;;76.10;47.77;;;;;;;11.25;68.62;95430.38;5130943;27;20188;-46
2022/12/30 01:19:57;;;;;;;69.50;45.60;;;;;;;11.23;68.71;95420.28;5131199;27;20282;-48
2022/12/30 01:22:24;;;;;;;73.47;47.90;;;;;;;11.24;68.70;95421.91;5131228;27;20199;-47
2022/12/30 01:24:51;;;;;;;75.10;47.57;;;;;;;11.23;68.64;95417.72;5131491;27;20184;-48
2022/12/30 01:27:18;;;;;;;77.53;50.40;;;;;;;11.22;68.76;95416.06;5130657;27;20632;-48
2022/12/30 01:29:45;;;;;;;80.33;50.13;;;;;;;11.21;68.88;95423.88;5131263;27;20203;-48
2022/12/30 01:32:14;;;;;;;79.03;48.17;;;;;;;11.21;68.83;95416.22;5131504;27;20188;-49
2022/12/30 01:34:41;;;;;;;78.57;48.60;;;;;;;11.20;68.77;95417.16;5133683;27;20187;-47
2022/12/30 01:37:11;;;;;;;69.40;47.67;;;;;;;11.18;68.88;95412.16;5133852;27;20184;-47
2022/12/30 01:39:37;;;;;;;81.47;49.30;;;;;;;11.17;68.80;95407.16;5132023;27;20227;-47
2022/12/30 01:42:17;;;;;;;73.27;47.97;;;;;;;11.16;68.84;95410.66;5130597;27;20536;-46
2022/12/30 01:44:59;;;;;;;72.33;48.57;;;;;;;11.06;68.92;95390.09;5131091;27;20188;-47
2022/12/30 01:47:34;;;;;;;75.53;48.07;;;;;;;11.11;69.10;95398.22;5130864;27;20509;-48
2022/12/30 01:50:07;;;;;;;81.33;50.73;;;;;;;11.11;68.77;95402.53;5130864;27;20267;-48
2022/12/30 01:52:37;;;;;;;74.97;47.07;;;;;;;11.07;68.94;95398.59;5130623;27;20200;-47
2022/12/30 01:55:09;;;;;;;78.13;49.80;;;;;;;11.08;69.07;95406.13;5130904;27;20199;-46
2022/12/30 01:57:39;;;;;;;71.07;48.13;;;;;;;11.09;69.11;95401.84;5110203;28;20197;-48
2022/12/30 02:00:08;;;;;;;79.83;49.57;;;;;;;11.08;69.01;95405.34;5110021;28;20189;-46
2022/12/30 02:02:35;;;;;;;89.40;49.30;;;;;;;11.04;69.20;95400.44;5109801;28;20276;-46
2022/12/30 02:05:05;;;;;;;75.27;49.07;;;;;;;11.06;69.17;95408.03;5110104;28;20554;-48
2022/12/30 02:07:40;;;;;;;82.17;49.70;;;;;;;11.04;68.99;95397.88;5109756;28;20197;-48
2022/12/30 02:10:08;;;;;;;78.07;50.50;;;;;;;11.04;69.05;95402.19;5111892;27;20200;-46
2022/12/30 02:12:35;;;;;;;72.97;48.13;;;;;;;11.04;69.26;95399.63;5130856;27;20215;-46
2022/12/30 02:15:04;;;;;;;73.83;47.93;;;;;;;11.02;68.95;95392.09;5130459;27;20184;-48
2022/12/30 02:17:42;;;;;;;75.80;48.57;;;;;;;10.94;69.31;95381.66;5129862;27;20196;-47
2022/12/30 02:20:44;;;;;;;81.97;49.07;;;;;;;10.98;69.33;95398.41;5130679;27;20198;-47
2022/12/30 02:23:35;;;;;;;81.73;50.27;;;;;;;10.96;69.19;95399.44;5046310;28;20206;-47
2022/12/30 02:26:44;;;;;;;78.30;49.00;;;;;;;10.93;69.21;95392.03;5046582;28;20288;-46
2022/12/30 02:29:39;;;;;;;73.57;47.60;;;;;;;10.92;69.48;95395.50;5006782;28;20667;-46
2022/12/30 02:32:15;;;;;;;76.60;47.27;;;;;;;10.90;69.73;95397.38;5006669;28;20188;-47
2022/12/30 02:34:57;;;;;;;78.67;47.80;;;;;;;10.89;69.41;95400.88;5006925;28;20313;-48
2022/12/30 02:37:31;;;;;;;73.33;47.93;;;;;;;10.88;69.53;95400.06;5006895;28;20743;-48
2022/12/30 02:40:08;;;;;;;73.03;46.83;;;;;;;10.85;69.57;95392.63;5006862;28;20208;-48
2022/12/30 02:45:30;;;;;;;68.37;45.23;;;;;;;10.82;69.47;95389.50;5006890;28;20183;-46
2022/12/30 02:48:04;;;;;;;76.07;46.27;;;;;;;10.77;69.81;95394.97;5006780;28;20270;-46
2022/12/30 02:53:23;;;;;;;68.27;43.77;;;;;;;10.73;69.61;95380.81;5006971;28;20628;-47
2022/12/30 02:55:52;;;;;;;69.93;45.70;;;;;;;10.67;69.79;95384.66;5006413;28;20219;-48
2022/12/30 02:58:19;;;;;;;69.97;44.83;;;;;;;10.67;69.85;95386.41;5007212;28;20197;-47
2022/12/30 03:04:00;;;;;;;65.80;43.83;;;;;;;10.53;69.88;95377.25;5086500;28;20193;-53
2022/12/30 03:07:02;;;;;;;65.17;41.70;;;;;;;10.57;70.00;95390.63;5100431;28;20617;-47
2022/12/30 03:12:35;;;;;;;64.30;43.43;;;;;;;10.49;70.12;95394.59;5049531;28;20194;-47
2022/12/30 03:15:07;;;;;;;73.83;44.77;;;;;;;10.44;69.92;95386.44;5054503;28;20187;-45
2022/12/30 03:17:38;;;;;;;69.63;45.10;;;;;;;10.43;70.44;95392.50;5070122;28;20243;-48
2022/12/30 03:20:09;;;;;;;64.63;43.03;;;;;;;10.19;70.08;95351.75;5070449;28;20202;-47
2022/12/30 03:28:11;;;;;;;66.43;41.23;;;;;;;10.28;70.24;95379.19;5050125;28;20237;-47
2022/12/30 03:30:45;;;;;;;64.50;41.03;;;;;;;10.31;70.36;95396.00;5049990;28;20229;-47
2022/12/30 03:33:13;;;;;;;68.37;43.60;;;;;;;10.29;70.27;95403.00;5049907;28;20234;-48
2022/12/30 03:35:48;;;;;;;66.53;43.27;;;;;;;10.26;70.52;95398.94;5049783;28;20939;-45
2022/12/30 03:38:18;;;;;;;69.93;43.73;;;;;;;10.25;70.36;95401.59;5054197;28;20178;-46
2022/12/30 03:40:48;;;;;;;69.33;41.70;;;;;;;10.23;70.60;95401.72;5069370;28;20674;-48
2022/12/30 03:43:16;;;;;;;65.60;42.20;;;;;;;10.22;70.38;95402.63;5069981;28;20205;-47
2022/12/30 03:45:43;;;;;;;61.27;41.20;;;;;;;10.20;70.50;95407.03;5084464;27;20189;-46
2022/12/30 03:48:10;;;;;;;62.73;40.97;;;;;;;10.19;70.67;95405.44;5133235;27;20253;-47
2022/12/30 03:50:37;;;;;;;59.73;41.57;;;;;;;10.18;70.48;95403.78;5133341;27;20215;-48
2022/12/30 03:53:05;;;;;;;60.97;41.33;;;;;;;10.18;70.41;95398.66;5133280;27;20192;-47
2022/12/30 03:55:31;;;;;;;67.40;40.67;;;;;;;10.16;70.51;95403.09;5132944;27;20249;-47
2022/12/30 03:57:58;;;;;;;65.63;42.90;;;;;;;10.07;70.55;95396.13;5133354;27;20203;-47
2022/12/30 04:00:25;;;;;;;66.50;41.07;;;;;;;10.12;70.79;95409.38;5133228;27;20184;-46
2022/12/30 04:02:52;;;;;;;66.43;42.93;;;;;;;10.11;70.43;95404.38;5132395;27;20192;-46
2022/12/30 04:05:18;;;;;;;57.83;40.77;;;;;;;10.10;70.63;95410.41;5132986;27;20185;-47
2022/12/30 04:07:45;;;;;;;65.43;41.80;;;;;;;10.08;70.65;95415.66;5132256;27;20216;-45
2022/12/30 04:10:13;;;;;;;63.33;39.93;;;;;;;10.06;70.76;95420.06;5132885;27;20298;-46
2022/12/30 04:12:40;;;;;;;63.27;41.43;;;;;;;10.08;70.64;95418.19;5132732;27;20192;-47
2022/12/30 04:15:08;;;;;;;65.33;41.97;;;;;;;10.08;70.63;95420.75;5132817;27;20247;-48
2022/12/30 04:17:35;;;;;;;63.47;39.90;;;;;;;10.09;70.63;95421.56;5132367;27;20196;-46
2022/12/30 04:20:02;;;;;;;60.87;40.57;;;;;;;10.09;70.64;95427.50;5132140;27;20196;-47
2022/12/30 04:22:29;;;;;;;62.37;40.53;;;;;;;10.04;70.53;95417.63;5132216;27;20185;-47
2022/12/30 04:24:55;;;;;;;58.13;37.60;;;;;;;10.09;70.63;95432.59;5132257;27;20683;-46
2022/12/30 04:27:24;;;;;;;60.57;39.77;;;;;;;10.10;70.50;95425.75;5132831;27;20249;-48
2022/12/30 04:29:50;;;;;;;67.40;40.20;;;;;;;10.07;70.72;95429.34;5132479;27;20192;-47
2022/12/30 04:32:17;;;;;;;63.27;40.00;;;;;;;10.08;70.72;95430.16;5132485;27;20195;-46
2022/12/30 04:34:44;;;;;;;60.33;40.33;;;;;;;10.07;70.73;95434.47;5132192;27;20249;-47
2022/12/30 04:37:11;;;;;;;63.23;39.60;;;;;;;10.05;70.75;95434.56;5132097;27;20562;-47
2022/12/30 04:39:37;;;;;;;60.43;40.57;;;;;;;10.03;70.94;95438.19;5132233;27;20224;-46
2022/12/30 04:42:04;;;;;;;64.97;41.80;;;;;;;10.01;70.85;95440.84;5132149;27;20258;-47
2022/12/30 04:44:32;;;;;;;63.47;38.53;;;;;;;9.95;70.55;95431.09;5132353;27;20184;-47
2022/12/30 04:46:59;;;;;;;57.07;38.73;;;;;;;9.95;70.70;95443.88;5132235;27;20212;-47
2022/12/30 04:49:26;;;;;;;56.40;38.93;;;;;;;9.79;70.94;95423.75;5131860;27;20253;-47
2022/12/30 04:51:53;;;;;;;57.03;38.43;;;;;;;9.74;71.10;95417.38;5132395;27;20245;-47
2022/12/30 04:54:19;;;;;;;54.40;37.77;;;;;;;9.89;70.94;95443.53;5132363;27;20245;-46
2022/12/30 04:56:46;;;;;;;59.57;38.37;;;;;;;9.86;71.16;95447.13;5132123;27;20192;-47
2022/12/30 04:59:13;;;;;;;58.00;38.73;;;;;;;9.84;70.99;95448.94;5132077;27;20298;-48
2022/12/30 05:01:41;;;;;;;60.07;38.73;;;;;;;9.78;70.98;95445.13;5131524;27;20188;-46
2022/12/30 05:04:08;;;;;;;54.23;36.33;;;;;;;9.59;70.98;95421.09;5131953;27;20636;-47
2022/12/30 05:06:34;;;;;;;57.37;37.57;;;;;;;9.74;70.96;95453.13;5132071;27;20260;-47
2022/12/30 05:09:01;;;;;;;57.97;37.37;;;;;;;9.73;70.91;95452.31;5131934;27;20188;-46
2022/12/30 05:11:28;;;;;;;52.70;36.20;;;;;;;9.71;70.94;95455.91;5131745;27;20192;-46
2022/12/30 05:13:55;;;;;;;55.50;36.67;;;;;;;9.67;70.89;95455.34;5132246;27;20196;-47
2022/12/30 05:16:21;;;;;;;59.03;35.83;;;;;;;9.62;71.01;95456.59;5131398;27;20195;-47
2022/12/30 05:18:50;;;;;;;57.63;36.17;;;;;;;9.60;71.28;95461.81;5131407;27;20212;-47
2022/12/30 05:21:16;;;;;;;54.23;36.00;;;;;;;9.55;70.86;95448.56;5131690;27;20237;-48
2022/12/30 05:26:27;;;;;;;55.90;34.40;;;;;;;9.53;71.07;95456.34;5131142;27;20211;-47
2022/12/30 05:28:54;;;;;;;59.63;35.83;;;;;;;9.54;71.21;95464.81;5131277;27;20630;-49
2022/12/30 05:31:21;;;;;;;57.07;36.70;;;;;;;9.36;71.15;95441.44;5129702;27;20605;-47
2022/12/30 05:33:48;;;;;;;52.10;34.97;;;;;;;9.50;70.97;95468.53;5131066;27;20192;-46
2022/12/30 05:36:16;;;;;;;50.53;34.87;;;;;;;9.48;71.24;95476.28;5130660;27;20188;-48
2022/12/30 05:38:43;;;;;;;50.93;33.90;;;;;;;9.47;71.41;95471.31;5131234;27;20268;-46
2022/12/30 05:41:11;;;;;;;53.63;34.27;;;;;;;9.45;71.12;95475.69;5131297;27;20648;-47
2022/12/30 05:43:38;;;;;;;50.00;33.07;;;;;;;9.44;71.21;95477.44;5130829;27;20196;-50
2022/12/30 05:46:05;;;;;;;46.70;33.97;;;;;;;9.30;71.30;95463.13;5130746;27;20188;-49
2022/12/30 05:48:32;;;;;;;49.20;32.57;;;;;;;9.40;71.22;95486.25;5130455;27;20220;-47
2022/12/30 05:50:58;;;;;;;46.03;31.90;;;;;;;9.39;71.19;95482.06;5131077;27;20195;-46
2022/12/30 05:53:27;;;;;;;47.57;32.10;;;;;;;9.25;71.47;95472.84;5132394;27;20188;-46
2022/12/30 05:55:53;;;;;;;47.20;30.97;;;;;;;9.35;71.24;95487.50;5138674;27;20188;-47
2022/12/30 05:58:20;;;;;;;47.97;32.17;;;;;;;9.33;71.37;95489.38;5137308;27;20245;-48
2022/12/30 06:00:47;;;;;;;46.30;32.23;;;;;;;9.30;71.41;95486.09;5133325;27;20192;-47
2022/12/30 06:03:14;;;;;;;42.97;30.33;;;;;;;9.29;71.54;95484.47;5131072;27;20184;-46
2022/12/30 06:05:41;;;;;;;42.97;30.67;;;;;;;9.29;71.31;95488.75;5131283;27;20184;-46
2022/12/30 06:08:09;;;;;;;44.77;30.73;;;;;;;9.28;71.50;95484.56;5130196;27;20223;-45
2022/12/30 06:10:38;;;;;;;41.50;30.43;;;;;;;9.28;71.53;95487.13;5130690;27;20214;-47
2022/12/30 06:13:04;;;;;;;42.57;28.97;;;;;;;9.28;71.37;95492.22;5130131;27;20633;-47
2022/12/30 06:15:31;;;;;;;37.77;28.30;;;;;;;9.27;71.39;95483.75;5130762;27;20203;-48
2022/12/30 06:17:58;;;;;;;43.87;29.03;;;;;;;9.30;71.40;95490.38;5129717;27;20239;-47
2022/12/30 06:20:25;;;;;;;43.27;27.87;;;;;;;9.32;71.30;95491.06;5130220;27;20212;-47
2022/12/30 06:22:51;;;;;;;38.47;27.73;;;;;;;9.36;71.20;95494.22;5130648;27;20233;-47
2022/12/30 06:25:18;;;;;;;42.17;27.00;;;;;;;9.23;71.18;95476.44;5130153;27;20233;-48
2022/12/30 06:27:46;;;;;;;44.47;29.33;;;;;;;9.42;71.09;95492.06;5130538;27;20208;-47
2022/12/30 06:30:14;;;;;;;39.13;26.70;;;;;;;9.33;70.95;95469.75;5130791;27;20253;-48
2022/12/30 06:32:40;;;;;;;40.83;25.97;;;;;;;9.50;70.99;95497.44;5130204;27;20211;-47
2022/12/30 06:35:08;;;;;;;41.03;28.37;;;;;;;9.54;70.79;95498.00;5116588;27;20602;-49
2022/12/30 06:37:35;;;;;;;38.17;26.80;;;;;;;9.59;70.82;95502.81;5113746;27;20196;-47
2022/12/30 06:40:02;;;;;;;42.43;26.83;;;;;;;9.61;70.52;95493.28;5137089;27;20219;-48
2022/12/30 06:42:28;;;;;;;36.90;25.60;;;;;;;9.71;70.71;95515.47;5136372;27;20221;-47
2022/12/30 06:44:56;;;;;;;38.17;25.87;;;;;;;9.77;70.66;95504.00;5138377;27;20176;-46
2022/12/30 06:47:23;;;;;;;38.00;25.93;;;;;;;9.83;70.54;95508.66;5136938;27;20219;-47
2022/12/30 06:49:50;;;;;;;38.13;26.27;;;;;;;9.91;70.13;95501.22;5135474;27;20263;-45
2022/12/30 06:52:17;;;;;;;35.43;26.33;;;;;;;10.03;70.10;95508.00;5133011;27;20183;-47
2022/12/30 06:54:44;;;;;;;41.43;26.13;;;;;;;10.21;69.68;95507.53;5137693;27;20188;-50
2022/12/30 06:57:10;;;;;;;37.50;25.80;;;;;;;10.07;68.84;95436.22;5136264;27;20266;-46
2022/12/30 06:59:37;;;;;;;39.13;26.17;;;;;;;10.89;68.64;95514.28;5133770;27;20249;-48
2022/12/30 07:02:05;;;;;;;33.37;24.77;;;;;;;11.27;68.53;95498.47;5136630;27;20649;-46
2022/12/30 07:04:32;;;;;;;33.87;26.00;;;;;;;11.74;68.32;95524.59;5133652;27;20195;-46
2022/12/30 07:06:59;;;;;;;36.23;25.27;;;;;;;12.16;68.46;95524.59;5138006;27;20211;-45
2022/12/30 07:09:26;;;;;;;26.03;19.07;;;;;;;12.68;86.57;95504.84;5137126;27;20564;-47
2022/12/30 07:11:53;;;;;;;25.27;18.97;;;;;;;13.55;91.25;95509.31;5131924;27;20582;-46
2022/12/30 07:14:19;;;;;;;24.23;15.27;;;;;;;14.60;92.42;95522.13;5134893;27;20184;-44
2022/12/30 07:16:46;;;;;;;22.70;15.27;;;;;;;15.56;88.91;95519.94;5133871;27;20237;-48
2022/12/30 07:19:14;;;;;;;25.10;15.90;;;;;;;16.15;85.52;95523.66;5128640;27;20193;-47
2022/12/30 07:21:41;;;;;;;21.90;16.77;;;;;;;16.55;83.07;95530.81;5127349;27;20207;-45
2022/12/30 07:24:09;;;;;;;22.73;15.57;;;;;;;16.99;80.71;95502.28;5127027;28;20276;-46
2022/12/30 07:26:35;;;;;;;24.33;15.63;;;;;;;17.78;77.17;95523.44;5127278;28;20192;-46
2022/12/30 07:29:02;;;;;;;27.63;16.53;;;;;;;18.32;74.61;95528.91;5126707;28;20219;-45
2022/12/30 07:31:29;;;;;;;26.93;18.33;;;;;;;18.77;72.32;95535.28;5127176;28;20207;-47
2022/12/30 07:33:56;;;;;;;28.73;17.93;;;;;;;19.15;70.22;95525.09;5127002;28;20272;-48
2022/12/30 07:36:24;;;;;;;22.40;18.20;;;;;;;19.53;68.83;95529.41;5126791;28;20605;-50
2022/12/30 07:38:51;;;;;;;25.80;18.60;;;;;;;19.87;67.67;95543.00;5126804;28;20269;-47
2022/12/30 07:41:18;;;;;;;26.43;19.10;;;;;;;20.15;66.59;95532.84;5129824;27;20609;-50
2022/12/30 07:43:44;;;;;;;26.60;18.90;;;;;;;20.41;65.23;95529.84;5133780;27;20208;-47
2022/12/30 07:46:11;;;;;;;27.67;18.90;;;;;;;20.57;64.61;95526.31;5137202;27;20188;-45
2022/12/30 07:48:38;;;;;;;25.03;18.97;;;;;;;20.65;63.54;95534.00;5134933;27;20223;-46
2022/12/30 07:51:09;;;;;;;27.20;19.40;;;;;;;20.72;62.49;95542.69;5132834;27;20193;-45
2022/12/30 07:53:37;;;;;;;24.97;19.50;;;;;;;20.73;62.46;95549.53;5136787;27;20704;-47
2022/12/30 07:56:05;;;;;;;25.48;19.73;;;;;;;20.75;62.37;95550.94;5138995;27;20187;-45
2022/12/30 07:58:33;;;;;;;26.53;17.67;;;;;;;20.78;62.04;95540.19;5139384;27;20673;-46
2022/12/30 08:01:04;;;;;;;24.00;18.83;;;;;;;20.82;61.91;95543.25;5140890;27;20200;-47
2022/12/30 08:03:31;;;;;;;24.85;19.02;;;;;;;20.87;61.85;95545.31;5142623;27;20180;-46
2022/12/30 08:05:57;;;;;;;28.92;19.98;;;;;;;21.03;61.60;95538.13;5137040;27;20204;-44
2022/12/30 08:08:27;;;;;;;26.00;19.35;;;;;;;21.39;61.03;95533.94;5140774;27;20225;-44
2022/12/30 08:10:56;;;;;;;28.80;19.27;;;;;;;21.71;60.14;95532.66;5123971;27;20184;-48
2022/12/30 08:13:23;;;;;;;26.77;20.05;;;;;;;21.57;59.72;95534.34;5152906;27;20180;-47
2022/12/30 08:15:50;;;;;;;28.05;19.63;;;;;;;21.19;59.54;95528.47;5151234;27;20571;-48
2022/12/30 08:18:17;;;;;;;29.98;21.10;;;;;;;20.83;59.50;95531.84;5153322;27;20188;-49
2022/12/30 08:20:44;;;;;;;31.40;22.23;;;;;;;20.51;59.59;95533.84;5153335;27;20195;-47
2022/12/30 08:23:10;;;;;;;31.23;23.02;;;;;;;20.29;59.67;95537.25;5137952;27;20688;-47
2022/12/30 08:25:37;;;;;;;32.60;22.90;;;;;;;20.04;60.00;95536.69;5132344;27;20184;-49
2022/12/30 08:28:05;;;;;;;26.52;21.50;;;;;;;19.83;59.93;95532.13;5132860;27;20595;-47
2022/12/30 08:30:32;;;;;;;31.40;23.92;;;;;;;19.65;59.94;95534.22;5132643;27;20204;-47
2022/12/30 08:32:59;;;;;;;36.13;23.57;;;;;;;19.44;59.92;95527.03;5132193;27;20225;-48
2022/12/30 08:35:26;;;;;;;36.63;25.43;;;;;;;19.23;59.57;95528.44;5132457;27;20192;-48
2022/12/30 08:37:53;;;;;;;36.60;24.57;;;;;;;19.03;59.48;95532.41;5132848;27;20193;-47
2022/12/30 08:40:20;;;;;;;33.37;25.03;;;;;;;18.77;59.51;95532.69;5132176;27;20234;-47
2022/12/30 08:42:47;;;;;;;35.73;25.73;;;;;;;18.52;59.55;95532.75;5132351;27;20298;-48
2022/12/30 08:45:15;;;;;;;38.77;26.17;;;;;;;18.29;59.63;95537.00;5132214;27;20203;-48
2022/12/30 08:47:42;;;;;;;35.80;26.03;;;;;;;18.07;59.70;95537.66;5132585;27;20212;-47
2022/12/30 08:50:09;;;;;;;36.13;26.57;;;;;;;17.84;59.96;95540.91;5131956;27;20188;-47
2022/12/30 08:52:37;;;;;;;40.67;27.90;;;;;;;17.61;60.32;95538.09;5132184;27;20200;-46
2022/12/30 08:55:05;;;;;;;39.87;27.80;;;;;;;17.42;60.45;95526.28;5132114;27;20212;-47
2022/12/30 08:57:32;;;;;;;36.13;27.47;;;;;;;17.26;60.63;95539.97;5132154;27;20532;-47
2022/12/30 08:59:59;;;;;;;37.50;28.10;;;;;;;17.14;60.58;95532.69;5132407;27;20192;-47
2022/12/30 09:02:27;;;;;;;37.93;27.63;;;;;;;16.95;60.49;95516.47;5132038;27;20192;-48
2022/12/30 09:04:54;;;;;;;39.13;28.30;;;;;;;16.95;60.62;95537.16;5131935;27;20196;-47
2022/12/30 09:07:21;;;;;;;39.93;27.80;;;;;;;16.86;60.60;95539.88;5131433;27;20192;-47
2022/12/30 09:09:48;;;;;;;40.30;26.80;;;;;;;16.87;60.89;95531.13;5131950;27;20185;-47
2022/12/30 09:12:15;;;;;;;31.40;24.60;;;;;;;16.88;61.00;95531.00;5131746;27;20177;-46
2022/12/30 09:14:41;;;;;;;30.57;22.87;;;;;;;16.84;61.89;95524.53;5131895;27;20189;-47
2022/12/30 09:17:08;;;;;;;31.60;23.73;;;;;;;16.86;62.44;95529.53;5131718;27;20421;-47
2022/12/30 09:19:36;;;;;;;36.23;24.77;;;;;;;16.82;62.37;95530.81;5131703;27;20207;-47
2022/12/30 09:22:03;;;;;;;35.73;25.00;;;;;;;16.72;62.15;95520.56;5131471;27;20188;-47
2022/12/30 09:24:30;;;;;;;32.93;24.23;;;;;;;16.73;62.00;95533.34;5131892;27;20196;-48
2022/12/30 09:26:57;;;;;;;31.07;23.20;;;;;;;16.70;61.84;95531.03;5131227;27;20184;-47
2022/12/30 09:29:24;;;;;;;30.50;25.00;;;;;;;16.67;61.65;95522.81;5131442;27;20220;-47
2022/12/30 09:31:50;;;;;;;37.33;26.30;;;;;;;16.62;61.74;95525.03;5131435;27;20679;-47
2022/12/30 09:34:17;;;;;;;35.17;25.83;;;;;;;16.58;61.52;95523.72;5130861;27;20199;-48
2022/12/30 09:36:45;;;;;;;35.17;24.77;;;;;;;16.55;61.39;95517.91;5131884;27;20192;-47
2022/12/30 09:39:13;;;;;;;35.07;25.70;;;;;;;16.52;61.22;95523.38;5133053;27;20231;-47
2022/12/30 09:45:04;;;;;;;38.43;27.73;;;;;;;16.48;60.99;95506.56;5067760;28;20252;-47
2022/12/30 09:47:33;;;;;;;34.63;25.87;;;;;;;16.52;60.72;95510.44;5067464;28;20182;-46
2022/12/30 09:50:06;;;;;;;33.53;26.47;;;;;;;16.51;60.78;95502.88;5067340;28;20190;-48
2022/12/30 09:52:40;;;;;;;37.67;25.70;;;;;;;16.47;60.86;95496.41;5067346;28;21014;-46
2022/12/30 09:55:16;;;;;;;39.40;26.07;;;;;;;16.42;60.82;95493.47;5067389;28;20185;-47
2022/12/30 09:57:48;;;;;;;34.23;26.50;;;;;;;16.41;60.72;95497.81;5067444;28;20597;-49
2022/12/30 10:00:18;;;;;;;38.37;26.03;;;;;;;16.40;60.59;95490.22;5067400;28;20838;-48
2022/12/30 10:02:56;;;;;;;36.57;26.80;;;;;;;16.38;60.38;95481.84;5067142;28;20197;-46
2022/12/30 10:05:46;;;;;;;37.23;27.53;;;;;;;16.36;60.53;95481.16;5066865;28;20201;-47
2022/12/30 10:08:27;;;;;;;41.27;28.17;;;;;;;16.33;60.46;95482.28;5067113;28;20222;-49
2022/12/30 10:11:04;;;;;;;34.37;26.10;;;;;;;16.34;60.29;95475.34;5067050;28;20186;-47
2022/12/30 10:13:38;;;;;;;33.80;26.00;;;;;;;16.35;60.11;95479.53;5070691;28;20198;-48
2022/12/30 10:16:11;;;;;;;33.93;26.23;;;;;;;16.34;60.06;95465.84;5068435;28;20264;-47
2022/12/30 10:18:58;;;;;;;37.53;26.67;;;;;;;16.36;60.08;95473.41;5067654;28;20189;-48
2022/12/30 10:21:36;;;;;;;35.07;26.57;;;;;;;16.32;59.96;95454.88;5089107;27;20211;-47
2022/12/30 10:24:19;;;;;;;36.40;25.83;;;;;;;16.38;59.88;95463.75;5130523;27;20187;-49
2022/12/30 10:26:47;;;;;;;33.13;25.67;;;;;;;16.38;59.67;95464.56;5130423;27;20188;-47
2022/12/30 10:29:18;;;;;;;35.00;25.80;;;;;;;16.37;59.62;95451.81;5130026;27;20310;-48
2022/12/30 10:31:46;;;;;;;31.03;24.33;;;;;;;16.40;59.54;95452.28;5130363;27;20641;-46
2022/12/30 10:34:15;;;;;;;37.73;26.77;;;;;;;16.26;59.41;95424.50;5130194;27;20665;-47
2022/12/30 10:36:49;;;;;;;32.97;27.23;;;;;;;16.44;59.46;95451.03;5130049;27;20644;-47
2022/12/30 10:39:22;;;;;;;33.53;25.93;;;;;;;16.45;59.36;95438.91;5129770;27;20667;-48
2022/12/30 10:42:05;;;;;;;40.83;26.67;;;;;;;16.42;59.13;95427.16;5130238;27;20555;-47
2022/12/30 10:44:38;;;;;;;32.57;26.13;;;;;;;16.48;58.99;95430.88;5129916;27;20180;-46
2022/12/30 10:47:23;;;;;;;35.87;26.37;;;;;;;16.29;59.12;95399.19;5130049;27;20189;-47
2022/12/30 10:50:16;;;;;;;32.07;25.13;;;;;;;16.50;58.89;95434.13;5129726;27;20228;-47
2022/12/30 10:52:43;;;;;;;35.67;26.33;;;;;;;16.51;58.98;95420.25;5129887;28;20203;-46
2022/12/30 10:55:22;;;;;;;36.00;25.80;;;;;;;16.02;58.74;95334.91;5130362;28;20196;-47
2022/12/30 10:57:52;;;;;;;36.97;24.67;;;;;;;16.52;58.85;95412.31;5130503;28;20184;-48
2022/12/30 11:00:21;;;;;;;33.53;25.67;;;;;;;16.53;58.57;95418.31;5130231;28;20732;-47
2022/12/30 11:02:56;;;;;;;33.67;25.67;;;;;;;16.55;58.76;95408.63;5130115;28;20268;-49
2022/12/30 11:05:33;;;;;;;35.23;26.37;;;;;;;16.50;58.45;95385.88;5129982;28;20214;-47
2022/12/30 11:08:01;;;;;;;35.23;26.20;;;;;;;16.61;58.38;95399.44;5129574;28;20197;-48
2022/12/30 11:10:29;;;;;;;33.77;25.53;;;;;;;16.61;58.44;95395.09;5129976;28;20695;-48
2022/12/30 11:16:04;;;;;;;31.87;24.90;;;;;;;16.59;58.35;95381.53;5026200;28;20198;-47
2022/12/30 11:18:31;;;;;;;36.33;25.77;;;;;;;16.55;58.20;95385.41;5026384;28;20199;-46
2022/12/30 11:20:59;;;;;;;33.27;24.77;;;;;;;16.62;58.26;95388.94;5025992;28;20195;-49
2022/12/30 11:23:30;;;;;;;31.73;24.30;;;;;;;16.63;58.10;95388.00;5026558;28;20184;-49
2022/12/30 11:26:00;;;;;;;31.83;24.40;;;;;;;16.63;58.10;95382.84;5026144;28;20912;-49
2022/12/30 11:28:29;;;;;;;33.83;24.30;;;;;;;16.49;58.13;95362.78;5026541;28;20207;-46
2022/12/30 11:31:03;;;;;;;36.00;26.00;;;;;;;16.65;58.19;95388.63;5028579;28;20605;-48
2022/12/30 11:33:33;;;;;;;31.67;24.50;;;;;;;16.53;57.98;95359.72;5030159;28;20733;-47
2022/12/30 11:36:19;;;;;;;31.13;24.33;;;;;;;16.58;58.10;95368.75;5029649;28;20202;-47
2022/12/30 11:38:47;;;;;;;28.83;22.73;;;;;;;16.67;57.92;95381.56;5029866;28;20187;-46
2022/12/30 11:41:21;;;;;;;34.70;24.67;;;;;;;16.69;57.83;95391.72;5029665;28;20199;-47
2022/12/30 11:43:50;;;;;;;37.30;25.20;;;;;;;16.69;57.91;95382.19;5030341;28;20223;-46
2022/12/30 11:46:19;;;;;;;30.60;23.80;;;;;;;16.71;57.62;95384.59;5029745;28;20211;-48
2022/12/30 11:48:49;;;;;;;31.63;23.87;;;;;;;16.71;57.88;95371.69;5030046;28;20632;-47
2022/12/30 11:51:20;;;;;;;30.97;23.90;;;;;;;16.71;57.74;95367.38;5029399;28;20191;-51
2022/12/30 11:53:48;;;;;;;32.93;23.83;;;;;;;16.71;57.81;95374.28;5126387;27;20196;-48
2022/12/30 11:56:21;;;;;;;29.60;23.90;;;;;;;16.68;57.85;95369.44;5133108;27;20188;-48
2022/12/30 11:58:49;;;;;;;27.23;22.07;;;;;;;16.71;57.80;95382.03;5133266;27;20199;-47
2022/12/30 12:01:16;;;;;;;29.70;23.83;;;;;;;16.71;57.76;95382.88;5132850;27;20640;-48
2022/12/30 12:03:48;;;;;;;28.03;21.93;;;;;;;16.68;57.76;95377.19;5133037;27;20358;-48
2022/12/30 12:06:15;;;;;;;34.10;24.07;;;;;;;16.70;57.80;95381.22;5132887;27;20189;-48
2022/12/30 12:08:53;;;;;;;31.73;23.67;;;;;;;16.68;57.76;95385.75;5133487;27;20208;-47
2022/12/30 12:11:25;;;;;;;32.07;24.30;;;;;;;16.54;57.54;95350.22;5132841;27;20679;-48
2022/12/30 12:13:59;;;;;;;31.53;22.60;;;;;;;16.70;57.69;95370.88;5132865;27;20199;-47
2022/12/30 12:16:38;;;;;;;30.30;22.83;;;;;;;16.71;57.54;95380.28;5132571;27;20285;-47
2022/12/30 12:19:15;;;;;;;29.07;21.90;;;;;;;16.73;57.50;95386.13;5132983;27;20188;-48
2022/12/30 12:21:43;;;;;;;32.10;21.50;;;;;;;16.75;57.48;95379.03;5132769;27;20241;-47
2022/12/30 12:24:19;;;;;;;29.63;23.53;;;;;;;16.77;57.41;95376.28;5132842;27;20192;-47
2022/12/30 12:26:53;;;;;;;31.90;22.40;;;;;;;16.74;57.51;95376.59;5132783;27;20188;-47
2022/12/30 12:29:20;;;;;;;29.00;22.27;;;;;;;16.70;57.61;95373.47;5132902;27;20220;-48